Etusivu
METAR-TAF:

METAR-TAF

Lentoasemat :

Córdoba, Argentiina

Leveyspiiri: 31-19S, Pituuspiiri: 064-13W, korkeus merenpinnasta: 484 m

Tämänhetkinen sää

Tämä raportti tehtiin 59 minuuttia sitten, kello 09.00 UTC
Tuuli 8 kn pohjoisesta
Lämpötila 9°C
Kosteus 87%
Ilmanpaine 1018 hPa
Näkyvyys 10 km tai enemmän
ei pilviä alle 1500 m:ssä eikä cumulonimbus-pilviä

METAR: SACO 170900Z 35008KT CAVOK 09/07 Q1018 NOSIG

Aika: 06:59 (09:59 UTC)

Sääennuste

Tämä raportti tehtiin 4 tuntia ja 59 minuuttia sitten, kello 05.00 UTC
Ennuste voimassa 17. päivästä klo 06 UTC - 18. päivään klo 06 UTC
Tuuli 3 kn eri suunnista
Näkyvyys 10 km tai enemmän
ei pilviä alle 1500 m:ssä eikä cumulonimbus-pilviä
Ajoittain
16. päivästä klo 09 UTC - 16. päivään klo 11 UTC
Näkyvyys: 1200 m
utua
Tulossa
17. päivästä klo 15 UTC - 17. päivään klo 18 UTC
Tuuli 10 kn pohjoisesta

TAF: SACO 170500Z 1706/1806 VRB03KT CAVOK TX26/1718Z TN08/1710Z TEMPO 1609/1611 1200 BR BECMG 1715/1718 36010KT

Säähavainnot ja -ennusteet yli 4000 lentoasemalta (METAR- ja TAF-raportit).

Käytössä olevat sääasemat on merkitty karttaan keltaisilla ja punaisilla pisteillä.

Aseta hiiri pisteen päälle nähdäksesi sääaseman nimen.

Klikkaa sitten nähdäksesi säähavainnot ja -ennusteet.

Kartan vaihtaminen: klikkaa mustalla rastilla varustettuja vihreitä pisteitä, niin voit zoomata sisään; viivalla varustettua vihreää pistettä, niin voit zoomata ulos tai vihreitä nuolia, niin pääset viereisille kartoille.


METAR-TAF: